Time;durP1;ratioP1;P1;durP2;ratioP2;P2;SDS_P1;SDS_P2;PMS_P1;PMS_P2;Temp;Humidity;BMP_temperature;BMP_pressure;BME280_temperature;BME280_humidity;BME280_pressure;Samples;Min_cycle;Max_cycle;Signal;HPM_P1;HPM_P2
2024/03/08 00:01:09;;;;;;;;;;;;;;;-0.18;100.00;101468.94;6155861;23;20008;-75
2024/03/08 00:03:34;;;;;;;;;;;;;;;-0.12;100.00;101466.81;6154438;23;19940;-75
2024/03/08 00:05:59;;;;;;;;;;;;;;;-0.10;100.00;101472.84;6153600;23;19914;-75
2024/03/08 00:08:28;;;;;;;;;;;;;;;-0.08;100.00;101468.28;6154552;23;19913;-74
2024/03/08 00:10:53;;;;;;;;;;;;;;;-0.07;100.00;101459.38;6154378;23;19923;-75
2024/03/08 00:13:19;;;;;;;;;;;;;;;-0.03;100.00;101459.03;6153473;23;19929;-75
2024/03/08 00:15:44;;;;;;;;;;;;;;;-0.03;100.00;101452.91;6154291;23;20374;-75
2024/03/08 00:18:11;;;;;;;;;;;;;;;0.01;100.00;101450.88;6155183;23;20226;-75
2024/03/08 00:20:36;;;;;;;;;;;;;;;-0.01;100.00;101443.91;6153061;23;19995;-75
2024/03/08 00:23:01;;;;;;;;;;;;;;;0.07;99.25;101443.31;6154008;23;19967;-75
2024/03/08 00:25:27;;;;;;;;;;;;;;;0.19;98.19;101446.00;6154807;23;19912;-75
2024/03/08 00:27:55;;;;;;;;;;;;;;;0.28;97.24;101443.53;6153157;23;19980;-75
2024/03/08 00:30:22;;;;;;;;;;;;;;;0.30;97.02;101444.25;6152750;23;19908;-75
2024/03/08 00:32:48;;;;;;;;;;;;;;;0.24;96.49;101438.56;6154369;23;20227;-75
2024/03/08 00:35:13;;;;;;;;;;;;;;;0.18;97.56;101433.75;6150723;23;19924;-76
2024/03/08 00:37:39;;;;;;;;;;;;;;;0.09;98.01;101428.19;6153906;23;19908;-75
2024/03/08 00:40:08;;;;;;;;;;;;;;;0.13;97.40;101431.44;6154663;23;19951;-75
2024/03/08 00:42:34;;;;;;;;;;;;;;;0.10;97.79;101434.31;6152844;23;19917;-75
2024/03/08 00:44:59;;;;;;;;;;;;;;;-0.01;98.66;101429.84;6153140;23;20207;-75
2024/03/08 00:47:24;;;;;;;;;;;;;;;0.03;98.80;101430.44;6154972;23;19975;-75
2024/03/08 00:49:50;;;;;;;;;;;;;;;0.03;98.28;101441.03;6153515;23;19916;-75
2024/03/08 00:52:15;;;;;;;;;;;;;;;0.06;98.34;101431.03;6153251;23;19941;-76
2024/03/08 00:54:40;;;;;;;;;;;;;;;0.10;97.92;101429.88;6155755;23;19920;-75
2024/03/08 00:57:08;;;;;;;;;;;;;;;0.09;97.50;101422.88;6151887;23;20329;-75
2024/03/08 00:59:33;;;;;;;;;;;;;;;0.02;97.67;101411.06;6153287;23;20241;-75
2024/03/08 01:02:00;;;;;;;;;;;;;;;-0.01;98.27;101404.19;6154002;23;20321;-76
2024/03/08 01:04:25;;;;;;;;;;;;;;;-0.08;98.61;101418.81;6152631;23;19970;-74
2024/03/08 01:06:52;;;;;;;;;;;;;;;-0.16;99.01;101406.16;6153784;23;20019;-75
2024/03/08 01:09:17;;;;;;;;;;;;;;;-0.16;99.66;101400.88;6153447;23;20291;-74
2024/03/08 01:11:43;;;;;;;;;;;;;;;-0.18;99.22;101392.19;6153313;23;20374;-75
2024/03/08 01:14:08;;;;;;;;;;;;;;;-0.08;98.79;101389.72;6152832;23;20321;-75
2024/03/08 01:16:33;;;;;;;;;;;;;;;-0.12;98.69;101393.56;6153361;23;19917;-75
2024/03/08 01:18:58;;;;;;;;;;;;;;;-0.10;98.71;101393.44;6153191;23;19967;-74
2024/03/08 01:21:23;;;;;;;;;;;;;;;-0.06;98.96;101392.25;6153308;23;19909;-76
2024/03/08 01:23:49;;;;;;;;;;;;;;;-0.10;98.44;101382.84;6151977;23;19916;-74
2024/03/08 01:26:14;;;;;;;;;;;;;;;-0.16;98.83;101374.41;6153753;23;19935;-76
2024/03/08 01:28:40;;;;;;;;;;;;;;;-0.16;99.11;101373.56;6126026;23;19917;-75
2024/03/08 01:31:05;;;;;;;;;;;;;;;-0.12;98.79;101368.88;6153545;23;19999;-75
2024/03/08 01:33:31;;;;;;;;;;;;;;;-0.13;98.59;101368.06;6152520;23;19946;-75
2024/03/08 01:35:57;;;;;;;;;;;;;;;-0.12;98.37;101356.53;6153206;23;19915;-75
2024/03/08 01:38:22;;;;;;;;;;;;;;;-0.12;98.86;101358.31;6152559;23;19913;-75
2024/03/08 01:40:47;;;;;;;;;;;;;;;-0.10;98.72;101361.69;6154110;23;19972;-75
2024/03/08 01:43:22;;;;;;;;;;;;;;;-0.16;98.62;101361.16;6151208;23;19991;-75
2024/03/08 01:45:48;;;;;;;;;;;;;;;-0.19;98.93;101350.84;6152564;23;19920;-75
2024/03/08 01:48:14;;;;;;;;;;;;;;;-0.17;98.87;101350.72;6153697;23;19912;-75
2024/03/08 01:50:40;;;;;;;;;;;;;;;-0.14;98.42;101350.50;6127726;23;20379;-75
2024/03/08 01:53:05;;;;;;;;;;;;;;;-0.18;98.24;101339.28;6154726;23;20318;-76
2024/03/08 01:55:35;;;;;;;;;;;;;;;-0.22;98.73;101343.13;6163119;23;19913;-75
2024/03/08 01:58:00;;;;;;;;;;;;;;;-0.22;98.94;101343.13;6152865;23;19992;-75
2024/03/08 02:00:26;;;;;;;;;;;;;;;-0.24;99.21;101345.03;6128122;23;19948;-74
2024/03/08 02:02:51;;;;;;;;;;;;;;;-0.24;99.41;101333.59;6127514;23;19987;-75
2024/03/08 02:05:16;;;;;;;;;;;;;;;-0.25;99.22;101327.47;6152615;23;19968;-75
2024/03/08 02:07:43;;;;;;;;;;;;;;;-0.22;99.20;101337.84;6126973;23;19917;-75
2024/03/08 02:10:09;;;;;;;;;;;;;;;-0.22;98.65;101334.34;6153337;23;19913;-75
2024/03/08 02:12:34;;;;;;;;;;;;;;;-0.24;99.02;101337.09;6149122;23;19978;-75
2024/03/08 02:15:00;;;;;;;;;;;;;;;-0.26;99.54;101333.72;6184273;23;19935;-76
2024/03/08 02:17:25;;;;;;;;;;;;;;;-0.29;99.59;101336.59;6183247;23;19991;-76
2024/03/08 02:19:50;;;;;;;;;;;;;;;-0.33;99.99;101335.97;6189015;23;19920;-75
2024/03/08 02:22:15;;;;;;;;;;;;;;;-0.29;99.87;101341.88;6190995;23;19919;-74
2024/03/08 02:24:44;;;;;;;;;;;;;;;-0.28;99.38;101338.28;6157307;23;19912;-76
2024/03/08 02:27:11;;;;;;;;;;;;;;;-0.28;99.61;101333.00;6183539;23;19936;-76
2024/03/08 02:29:37;;;;;;;;;;;;;;;-0.30;99.17;101321.69;6183804;23;19912;-75
2024/03/08 02:32:03;;;;;;;;;;;;;;;-0.26;99.50;101325.78;6182292;23;20015;-75
2024/03/08 02:34:28;;;;;;;;;;;;;;;-0.30;98.86;101321.69;6181920;23;20238;-75
2024/03/08 02:36:56;;;;;;;;;;;;;;;-0.37;99.77;101323.09;6183777;23;19913;-76
2024/03/08 02:39:22;;;;;;;;;;;;;;;-0.38;100.00;101318.78;6184445;23;20345;-75
2024/03/08 02:41:47;;;;;;;;;;;;;;;-0.41;100.00;101316.34;6181794;23;19912;-76
2024/03/08 02:44:12;;;;;;;;;;;;;;;-0.49;100.00;101312.47;6184277;23;19917;-76
2024/03/08 02:46:56;;;;;;;;;;;;;;;-0.51;100.00;101317.00;6188034;23;19985;-76
2024/03/08 02:49:37;;;;;;;;;;;;;;;-0.53;100.00;101311.00;6189425;23;19923;-76
2024/03/08 02:52:21;;;;;;;;;;;;;;;-0.55;100.00;101305.00;6158195;23;19994;-75
2024/03/08 02:54:55;;;;;;;;;;;;;;;-0.58;100.00;101299.94;6185084;23;20284;-75
2024/03/08 02:57:20;;;;;;;;;;;;;;;-0.62;100.00;101295.81;6180228;23;19924;-76
2024/03/08 03:00:12;;;;;;;;;;;;;;;-0.61;100.00;101294.84;6154873;23;20092;-75
2024/03/08 03:02:38;;;;;;;;;;;;;;;-0.62;100.00;101294.00;6154403;23;19917;-75
2024/03/08 03:05:07;;;;;;;;;;;;;;;-0.63;100.00;101291.47;6157357;23;19920;-75
2024/03/08 03:07:33;;;;;;;;;;;;;;;-0.61;100.00;101284.28;6157208;23;19967;-75
2024/03/08 03:09:58;;;;;;;;;;;;;;;-0.57;100.00;101284.88;6156011;23;19913;-75
2024/03/08 03:12:23;;;;;;;;;;;;;;;-0.58;100.00;101284.06;6166742;23;19927;-73
2024/03/08 03:14:48;;;;;;;;;;;;;;;-0.62;100.00;101291.34;6166435;23;19913;-75
2024/03/08 03:17:14;;;;;;;;;;;;;;;-0.62;100.00;101293.16;6153685;23;19917;-74
2024/03/08 03:19:42;;;;;;;;;;;;;;;-0.64;100.00;101284.50;6154989;23;19912;-77
2024/03/08 03:22:09;;;;;;;;;;;;;;;-0.68;100.00;101280.38;6154869;23;19983;-77
2024/03/08 03:24:36;;;;;;;;;;;;;;;-0.70;100.00;101279.66;6153852;23;20123;-76
2024/03/08 03:27:01;;;;;;;;;;;;;;;-0.73;100.00;101282.53;6156681;23;20043;-75
2024/03/08 03:29:30;;;;;;;;;;;;;;;-0.70;100.00;101279.66;6157706;23;19913;-75
2024/03/08 03:31:55;;;;;;;;;;;;;;;-0.73;100.00;101274.63;6154986;23;19992;-74
2024/03/08 03:34:20;;;;;;;;;;;;;;;-0.73;100.00;101280.72;6151595;23;19913;-76
2024/03/08 03:36:47;;;;;;;;;;;;;;;-0.75;100.00;101271.25;6153331;23;19920;-77
2024/03/08 03:39:15;;;;;;;;;;;;;;;-0.71;100.00;101270.06;6155327;23;20007;-76
2024/03/08 03:41:41;;;;;;;;;;;;;;;-0.71;100.00;101262.13;6154284;23;19916;-76
2024/03/08 03:44:06;;;;;;;;;;;;;;;-0.74;100.00;101262.34;6152918;23;19944;-75
2024/03/08 03:46:32;;;;;;;;;;;;;;;-0.80;100.00;101264.47;6154209;23;19921;-76
2024/03/08 03:48:57;;;;;;;;;;;;;;;-0.84;100.00;101257.72;6154100;23;19985;-76
2024/03/08 03:51:23;;;;;;;;;;;;;;;-0.83;100.00;101269.16;6153698;23;20051;-76
2024/03/08 03:53:48;;;;;;;;;;;;;;;-0.84;100.00;101268.31;6154877;23;19920;-75
2024/03/08 03:56:31;;;;;;;;;;;;;;;-0.90;100.00;101252.91;6154883;23;19995;-75
2024/03/08 03:58:57;;;;;;;;;;;;;;;-0.93;100.00;101261.88;6173934;23;19920;-74
2024/03/08 04:01:22;;;;;;;;;;;;;;;-0.99;100.00;101264.13;6184163;23;19956;-75
2024/03/08 04:03:47;;;;;;;;;;;;;;;-0.95;100.00;101252.38;6184484;23;19908;-75
2024/03/08 04:06:12;;;;;;;;;;;;;;;-0.93;100.00;101250.47;6183171;23;19970;-77
2024/03/08 04:08:37;;;;;;;;;;;;;;;-1.00;100.00;101252.72;6185225;23;19920;-76
2024/03/08 04:11:03;;;;;;;;;;;;;;;-1.01;100.00;101244.91;6183431;23;19919;-75
2024/03/08 04:13:28;;;;;;;;;;;;;;;-1.09;100.00;101248.97;6183028;23;20421;-75
2024/03/08 04:15:53;;;;;;;;;;;;;;;-1.18;100.00;101244.31;6184332;23;19998;-75
2024/03/08 04:18:21;;;;;;;;;;;;;;;-1.17;100.00;101240.72;6183942;23;19916;-75
2024/03/08 04:20:47;;;;;;;;;;;;;;;-1.23;100.00;101246.44;6182606;23;20453;-75
2024/03/08 04:23:12;;;;;;;;;;;;;;;-1.27;100.00;101240.53;6184671;23;19952;-75
2024/03/08 04:25:38;;;;;;;;;;;;;;;-1.24;100.00;101244.78;6183315;23;19999;-75
2024/03/08 04:28:03;;;;;;;;;;;;;;;-1.27;100.00;101242.34;6183291;23;19916;-75
2024/03/08 04:30:28;;;;;;;;;;;;;;;-1.25;100.00;101243.09;6184559;23;19919;-76
2024/03/08 04:32:53;;;;;;;;;;;;;;;-1.33;100.00;101237.50;6184295;23;19912;-74
2024/03/08 04:35:22;;;;;;;;;;;;;;;-1.37;100.00;101237.72;6182386;23;19954;-75
2024/03/08 04:37:47;;;;;;;;;;;;;;;-1.35;100.00;101239.41;6184574;23;19912;-78
2024/03/08 04:40:12;;;;;;;;;;;;;;;-1.34;100.00;101233.16;6182752;23;19927;-75
2024/03/08 04:42:37;;;;;;;;;;;;;;;-1.34;100.00;101234.03;6182456;23;19912;-75
2024/03/08 04:45:04;;;;;;;;;;;;;;;-1.38;100.00;101228.09;6183381;23;19912;-76
2024/03/08 04:47:29;;;;;;;;;;;;;;;-1.41;100.00;101228.31;6182761;23;19967;-76
2024/03/08 04:49:56;;;;;;;;;;;;;;;-1.38;100.00;101228.09;6182973;23;19916;-75
2024/03/08 04:52:24;;;;;;;;;;;;;;;-1.39;100.00;101220.31;6182191;23;19912;-75
2024/03/08 04:54:49;;;;;;;;;;;;;;;-1.39;100.00;101221.13;6181832;23;19956;-75
2024/03/08 04:57:14;;;;;;;;;;;;;;;-1.37;100.00;101216.59;6183256;23;19912;-76
2024/03/08 04:59:39;;;;;;;;;;;;;;;-1.38;100.00;101222.81;6156148;23;19916;-76
2024/03/08 05:02:05;;;;;;;;;;;;;;;-1.37;100.00;101213.94;6182680;23;19920;-76
2024/03/08 05:04:30;;;;;;;;;;;;;;;-1.42;100.00;101216.09;6183026;23;19960;-76
2024/03/08 05:06:55;;;;;;;;;;;;;;;-1.38;100.00;101219.34;6182702;23;20186;-76
2024/03/08 05:09:20;;;;;;;;;;;;;;;-1.41;100.00;101207.19;6183126;23;20321;-76
2024/03/08 05:11:46;;;;;;;;;;;;;;;-1.48;100.00;101215.66;6183678;23;20233;-76
2024/03/08 05:14:16;;;;;;;;;;;;;;;-1.51;100.00;101206.19;6184134;23;19916;-76
2024/03/08 05:16:50;;;;;;;;;;;;;;;-1.57;100.00;101201.31;6157460;23;19936;-76
2024/03/08 05:19:19;;;;;;;;;;;;;;;-1.51;100.00;101206.19;6183655;23;19932;-76
2024/03/08 05:21:47;;;;;;;;;;;;;;;-1.47;100.00;101202.38;6183679;23;19964;-76
2024/03/08 05:24:16;;;;;;;;;;;;;;;-1.53;100.00;101195.72;6191712;23;19923;-75
2024/03/08 05:26:41;;;;;;;;;;;;;;;-1.60;100.00;101201.56;6189741;23;20237;-75
2024/03/08 05:29:07;;;;;;;;;;;;;;;-1.63;100.00;101201.78;6184842;23;19912;-76
2024/03/08 05:31:36;;;;;;;;;;;;;;;-1.62;100.00;101198.19;6184370;23;19944;-76
2024/03/08 05:34:01;;;;;;;;;;;;;;;-1.74;100.00;101206.00;6183805;23;19939;-76
2024/03/08 05:36:26;;;;;;;;;;;;;;;-1.73;100.00;101205.06;6182884;23;19991;-75
2024/03/08 05:38:51;;;;;;;;;;;;;;;-1.71;100.00;101189.94;6183115;23;20006;-76
2024/03/08 05:41:18;;;;;;;;;;;;;;;-1.78;100.00;101207.19;6183300;23;19919;-75
2024/03/08 05:43:43;;;;;;;;;;;;;;;-1.73;100.00;101206.84;6182777;23;19943;-76
2024/03/08 05:46:09;;;;;;;;;;;;;;;-1.84;100.00;101199.69;6184689;23;19920;-76
2024/03/08 05:48:34;;;;;;;;;;;;;;;-1.85;100.00;101198.00;6184083;23;20432;-75
2024/03/08 05:51:05;;;;;;;;;;;;;;;-1.84;100.00;101189.97;6192268;23;19912;-76
2024/03/08 05:53:31;;;;;;;;;;;;;;;-1.84;100.00;101194.41;6188052;23;19935;-76
2024/03/08 05:55:57;;;;;;;;;;;;;;;-1.82;100.00;101195.16;6186151;23;20310;-76
2024/03/08 05:58:22;;;;;;;;;;;;;;;-1.78;100.00;101193.13;6183387;23;20361;-76
2024/03/08 06:00:50;;;;;;;;;;;;;;;-1.71;100.00;101195.22;6184238;23;19919;-76
2024/03/08 06:03:15;;;;;;;;;;;;;;;-1.70;100.00;101189.00;6183732;23;19912;-75
2024/03/08 06:05:41;;;;;;;;;;;;;;;-1.68;100.00;101188.91;6182643;23;20326;-75
2024/03/08 06:08:07;;;;;;;;;;;;;;;-1.68;100.00;101189.75;6185720;23;19916;-76
2024/03/08 06:10:32;;;;;;;;;;;;;;;-1.65;100.00;101187.84;6184497;23;19972;-76
2024/03/08 06:12:58;;;;;;;;;;;;;;;-1.61;100.00;101189.31;6182291;23;19919;-75
2024/03/08 06:15:26;;;;;;;;;;;;;;;-1.56;100.00;101185.38;6187186;23;19919;-76
2024/03/08 06:17:52;;;;;;;;;;;;;;;-1.48;100.00;101187.47;6197168;23;19939;-76
2024/03/08 06:20:17;;;;;;;;;;;;;;;-1.47;100.00;101178.59;6187557;23;19923;-76
2024/03/08 06:22:44;;;;;;;;;;;;;;;-1.42;100.00;101179.13;6184922;23;19912;-76
2024/03/08 06:25:13;;;;;;;;;;;;;;;-1.40;100.00;101176.34;6184775;23;20314;-75
2024/03/08 06:27:39;;;;;;;;;;;;;;;-1.34;100.00;101181.22;6184157;23;20325;-74
2024/03/08 06:35:11;;;;;;;;;;;;;;;-0.74;100.00;101175.13;6186602;23;19920;-75
2024/03/08 06:43:39;;;;;;;;;;;;;;;0.70;93.60;101180.72;6130555;23;20038;-76
2024/03/08 06:46:18;;;;;;;;;;;;;;;0.94;90.37;101170.88;6194769;23;19944;-76
2024/03/08 06:48:43;;;;;;;;;;;;;;;1.50;87.56;101178.56;6182590;23;19913;-76
2024/03/08 06:51:15;;;;;;;;;;;;;;;1.92;85.01;101167.09;6184790;23;19949;-76
2024/03/08 06:53:40;;;;;;;;;;;;;;;2.18;83.87;101171.94;6183201;23;19912;-74
2024/03/08 06:56:07;;;;;;;;;;;;;;;2.67;80.54;101181.84;6183005;23;19987;-74
2024/03/08 06:58:32;;;;;;;;;;;;;;;2.62;78.03;101181.44;6182925;23;20341;-74
2024/03/08 07:01:00;;;;;;;;;;;;;;;2.97;76.96;101182.75;6183541;23;19913;-78
2024/03/08 07:03:27;;;;;;;;;;;;;;;2.93;77.03;101173.38;6158871;23;19943;-74
2024/03/08 07:05:52;;;;;;;;;;;;;;;3.43;74.33;101188.38;6183980;23;19960;-78
2024/03/08 07:08:22;;;;;;;;;;;;;;;3.41;73.48;101180.50;6183632;23;19986;-79
2024/03/08 07:10:49;;;;;;;;;;;;;;;3.76;71.35;101184.38;6182437;23;19909;-76
2024/03/08 07:13:14;;;;;;;;;;;;;;;4.05;71.34;101178.13;6182726;23;19912;-77
2024/03/08 07:15:39;;;;;;;;;;;;;;;4.23;69.81;101180.03;6182077;23;19930;-76
2024/03/08 07:18:04;;;;;;;;;;;;;;;3.89;71.37;101172.53;6182807;23;19939;-77
2024/03/08 07:20:30;;;;;;;;;;;;;;;4.13;69.56;101168.53;6182453;23;20323;-77
2024/03/08 07:22:58;;;;;;;;;;;;;;;4.43;66.86;101177.22;6182417;23;20217;-77
2024/03/08 07:25:29;;;;;;;;;;;;;;;4.57;66.70;101166.09;6181965;23;19986;-77
2024/03/08 07:27:54;;;;;;;;;;;;;;;4.50;67.37;101176.47;6182567;23;19951;-78
2024/03/08 07:33:07;;;;;;;;;;;;;;;4.72;66.00;101179.72;6182166;23;19927;-78
2024/03/08 07:35:32;;;;;;;;;;;;;;;5.45;62.77;101172.56;6182624;23;20474;-77
2024/03/08 07:37:59;;;;;;;;;;;;;;;5.63;63.56;101177.88;6181463;23;20087;-77
2024/03/08 07:40:25;;;;;;;;;;;;;;;5.78;60.54;101172.78;6182000;23;19916;-74
2024/03/08 07:42:50;;;;;;;;;;;;;;;5.89;60.54;101161.84;6180904;23;19924;-74
2024/03/08 07:45:16;;;;;;;;;;;;;;;6.48;57.96;101182.53;6179376;23;19978;-75
2024/03/08 07:47:41;;;;;;;;;;;;;;;6.39;59.69;101177.31;6182007;23;19924;-74
2024/03/08 07:50:09;;;;;;;;;;;;;;;6.53;57.47;101166.81;6180915;23;19912;-74
2024/03/08 07:52:36;;;;;;;;;;;;;;;6.67;57.26;101175.22;6182410;23;20402;-73
2024/03/08 07:55:01;;;;;;;;;;;;;;;6.80;56.22;101169.38;6181370;23;20244;-74
2024/03/08 07:57:26;;;;;;;;;;;;;;;6.58;56.74;101176.19;6154139;23;19923;-74
2024/03/08 07:59:51;;;;;;;;;;;;;;;7.22;54.96;101162.25;6180661;23;19928;-74
2024/03/08 08:02:17;;;;;;;;;;;;;;;7.00;56.03;101163.72;6181150;23;19913;-75
2024/03/08 08:04:44;;;;;;;;;;;;;;;7.05;54.56;101161.41;6180446;23;19971;-75
2024/03/08 08:07:09;;;;;;;;;;;;;;;7.76;53.48;101160.88;6183228;23;20388;-75
2024/03/08 08:09:35;;;;;;;;;;;;;;;7.37;53.40;101155.22;6180307;23;19928;-75
2024/03/08 08:12:02;;;;;;;;;;;;;;;7.86;52.74;101159.66;6180442;23;19946;-75
2024/03/08 08:14:29;;;;;;;;;;;;;;;8.31;51.76;101151.94;6181697;23;19995;-75
2024/03/08 08:16:59;;;;;;;;;;;;;;;7.91;52.98;101161.84;6181271;23;20043;-74
2024/03/08 08:19:26;;;;;;;;;;;;;;;8.51;50.85;101156.94;6179791;23;19916;-74
2024/03/08 08:21:51;;;;;;;;;;;;;;;8.56;49.36;101149.19;6182127;23;20256;-74
2024/03/08 08:24:21;;;;;;;;;;;;;;;8.51;50.12;101140.81;6180795;23;20301;-74
2024/03/08 08:26:47;;;;;;;;;;;;;;;8.78;49.54;101136.81;6180552;23;19923;-74
2024/03/08 08:29:12;;;;;;;;;;;;;;;9.23;47.47;101158.47;6180512;23;19912;-74
2024/03/08 08:31:37;;;;;;;;;;;;;;;8.81;50.04;101124.91;6180436;23;19917;-74
2024/03/08 08:34:03;;;;;;;;;;;;;;;8.51;50.21;101119.34;6164321;23;19988;-74
2024/03/08 08:36:29;;;;;;;;;;;;;;;8.51;49.89;101124.72;6152324;23;19920;-73
2024/03/08 08:38:55;;;;;;;;;;;;;;;8.67;49.28;101117.59;6151242;23;19926;-73
2024/03/08 08:41:21;;;;;;;;;;;;;;;8.63;49.99;101120.66;6150533;23;20230;-73
2024/03/08 08:43:47;;;;;;;;;;;;;;;9.17;49.46;101116.22;6152323;23;19913;-74
2024/03/08 08:46:13;;;;;;;;;;;;;;;8.88;49.38;101115.09;6151277;23;20285;-74
2024/03/08 08:48:38;;;;;;;;;;;;;;;9.60;48.00;101125.56;6149905;23;19995;-73
2024/03/08 08:51:03;;;;;;;;;;;;;;;9.16;47.98;101111.88;6153025;23;19967;-76
2024/03/08 08:53:29;;;;;;;;;;;;;;;9.26;48.35;101125.03;6150182;23;19986;-73
2024/03/08 08:55:54;;;;;;;;;;;;;;;9.84;46.49;101114.53;6151419;23;19919;-74
2024/03/08 08:58:19;;;;;;;;;;;;;;;9.49;46.90;101108.03;6159925;23;19900;-73
2024/03/08 09:00:47;;;;;;;;;;;;;;;9.43;48.58;101109.59;6152519;23;20198;-74
2024/03/08 09:03:14;;;;;;;;;;;;;;;10.16;45.84;101117.84;6151116;23;20336;-74
2024/03/08 09:05:39;;;;;;;;;;;;;;;9.46;47.61;101105.69;6152161;23;19912;-74
2024/03/08 09:08:04;;;;;;;;;;;;;;;9.35;48.28;101096.25;6150874;23;20226;-74
2024/03/08 09:10:30;;;;;;;;;;;;;;;9.68;47.08;101103.97;6151650;23;20178;-74
2024/03/08 09:12:55;;;;;;;;;;;;;;;10.26;46.02;101093.34;6149313;23;20359;-74
2024/03/08 09:15:20;;;;;;;;;;;;;;;10.18;45.87;101087.25;6150461;23;20358;-74
2024/03/08 09:17:46;;;;;;;;;;;;;;;9.94;45.96;101097.28;6151631;23;19912;-73
2024/03/08 09:20:14;;;;;;;;;;;;;;;10.09;46.35;101087.34;6152534;23;19988;-74
2024/03/08 09:22:40;;;;;;;;;;;;;;;10.08;46.58;101082.97;6150189;23;19944;-74
2024/03/08 09:25:05;;;;;;;;;;;;;;;10.55;45.94;101083.53;6163290;23;19916;-73
2024/03/08 09:27:30;;;;;;;;;;;;;;;10.81;44.25;101084.00;6152962;23;19979;-74
2024/03/08 09:29:56;;;;;;;;;;;;;;;10.27;45.25;101076.19;6150769;23;19971;-74
2024/03/08 09:32:22;;;;;;;;;;;;;;;10.26;45.31;101073.66;6150911;23;19916;-74
2024/03/08 09:34:47;;;;;;;;;;;;;;;10.99;44.47;101070.91;6152068;23;20302;-74
2024/03/08 09:37:13;;;;;;;;;;;;;;;10.86;44.80;101057.31;6150831;23;20318;-75
2024/03/08 09:39:38;;;;;;;;;;;;;;;11.50;44.15;101063.59;6150526;23;19912;-74
2024/03/08 09:42:04;;;;;;;;;;;;;;;11.04;45.18;101044.22;6150740;23;19920;-74
2024/03/08 09:44:29;;;;;;;;;;;;;;;11.00;44.37;101048.31;6149618;23;19935;-74
2024/03/08 09:46:54;;;;;;;;;;;;;;;11.01;45.26;101041.91;6150492;23;19916;-74
2024/03/08 09:49:20;;;;;;;;;;;;;;;10.57;45.38;101043.00;6151566;23;19912;-73
2024/03/08 09:51:45;;;;;;;;;;;;;;;10.52;45.33;101042.72;6154440;23;19979;-73
2024/03/08 09:54:11;;;;;;;;;;;;;;;10.78;45.66;101023.28;6126612;23;19916;-74
2024/03/08 09:56:36;;;;;;;;;;;;;;;11.76;43.23;101025.16;6152886;23;19917;-74
2024/03/08 10:01:46;;;;;;;;;;;;;;;10.90;44.03;101027.09;6151810;23;20345;-74
2024/03/08 10:04:11;;;;;;;;;;;;;;;11.17;44.46;101010.31;6150716;23;19913;-74
2024/03/08 10:06:36;;;;;;;;;;;;;;;11.05;44.49;101008.19;6152764;23;19919;-74
2024/03/08 10:09:02;;;;;;;;;;;;;;;11.82;42.95;101010.06;6153973;23;20279;-74
2024/03/08 10:11:27;;;;;;;;;;;;;;;11.47;44.02;101008.22;6154973;23;19916;-74
2024/03/08 10:13:52;;;;;;;;;;;;;;;10.91;44.86;101006.41;6153216;23;19917;-74
2024/03/08 10:18:42;;;;;;;;;;;;;;;10.73;45.58;100996.09;6156216;23;19947;-74
2024/03/08 10:21:37;;;;;;;;;;;;;;;10.26;45.89;101004.56;6127031;23;20031;-74
2024/03/08 10:24:20;;;;;;;;;;;;;;;11.32;44.72;100988.66;6032295;23;20323;-74
2024/03/08 10:26:45;;;;;;;;;;;;;;;11.55;44.13;100985.66;6032789;23;19921;-73
2024/03/08 10:29:15;;;;;;;;;;;;;;;11.90;43.12;100988.28;6142875;23;20164;-74
2024/03/08 10:31:43;;;;;;;;;;;;;;;11.74;43.70;100983.25;6154753;23;19913;-74
2024/03/08 10:34:08;;;;;;;;;;;;;;;12.42;41.93;101001.31;6154939;23;19914;-74
2024/03/08 10:36:33;;;;;;;;;;;;;;;11.86;42.52;100992.41;6153928;23;20277;-74
2024/03/08 10:38:58;;;;;;;;;;;;;;;10.87;43.77;100988.97;6153075;23;19921;-74
2024/03/08 10:41:24;;;;;;;;;;;;;;;11.35;42.87;100989.06;6153002;23;19983;-74
2024/03/08 10:43:49;;;;;;;;;;;;;;;10.82;44.35;100977.94;6152781;23;19952;-74
2024/03/08 10:46:18;;;;;;;;;;;;;;;10.94;45.05;100968.31;6151505;23;19913;-75
2024/03/08 10:48:43;;;;;;;;;;;;;;;10.29;45.51;100965.66;6145193;23;19920;-74
2024/03/08 10:51:17;;;;;;;;;;;;;;;10.49;46.73;100965.03;6124712;23;19928;-74
2024/03/08 10:53:59;;;;;;;;;;;;;;;9.98;46.59;100959.56;6124771;23;19925;-74
2024/03/08 10:56:27;;;;;;;;;;;;;;;10.06;46.69;100952.41;6118989;23;19912;-74
2024/03/08 10:58:52;;;;;;;;;;;;;;;9.45;48.28;100949.03;6126639;23;19917;-74
2024/03/08 11:01:17;;;;;;;;;;;;;;;9.19;49.59;100949.50;6124567;23;19987;-73
2024/03/08 11:03:48;;;;;;;;;;;;;;;8.82;50.43;100948.53;6126775;23;19920;-74
2024/03/08 11:08:55;;;;;;;;;;;;;;;8.29;51.53;100939.44;6149254;23;20251;-75
2024/03/08 11:11:30;;;;;;;;;;;;;;;8.48;51.12;100921.16;6126639;23;20265;-75
2024/03/08 11:14:05;;;;;;;;;;;;;;;8.37;51.15;100922.44;6151853;23;19909;-74
2024/03/08 11:16:35;;;;;;;;;;;;;;;8.67;50.39;100916.31;6153126;23;20241;-74
2024/03/08 11:19:04;;;;;;;;;;;;;;;9.42;49.73;100927.88;6152526;23;19908;-74
2024/03/08 11:21:31;;;;;;;;;;;;;;;10.31;46.60;100910.66;6152506;23;19996;-74
2024/03/08 11:23:59;;;;;;;;;;;;;;;10.91;44.94;100907.56;6125322;23;19991;-74
2024/03/08 11:26:25;;;;;;;;;;;;;;;11.32;43.67;100907.78;6152523;23;20306;-74
2024/03/08 11:28:55;;;;;;;;;;;;;;;11.84;42.86;100910.84;6151426;23;19909;-74
2024/03/08 11:31:20;;;;;;;;;;;;;;;12.67;41.86;100903.47;6152763;23;19932;-74
2024/03/08 11:33:46;;;;;;;;;;;;;;;12.67;40.95;100896.19;6152742;23;20315;-73
2024/03/08 11:36:16;;;;;;;;;;;;;;;12.62;40.92;100905.97;6151953;23;19913;-74
2024/03/08 11:38:43;;;;;;;;;;;;;;;12.58;40.10;100887.47;6151422;23;19913;-72
2024/03/08 11:41:14;;;;;;;;;;;;;;;12.51;40.68;100907.44;6152787;23;19915;-74
2024/03/08 11:43:42;;;;;;;;;;;;;;;12.06;40.88;100895.38;6151163;23;19968;-73
2024/03/08 11:46:08;;;;;;;;;;;;;;;12.50;39.70;100873.38;6150911;23;20404;-73
2024/03/08 11:48:35;;;;;;;;;;;;;;;12.43;41.19;100867.97;6152323;23;19916;-73
2024/03/08 11:51:01;;;;;;;;;;;;;;;12.31;40.10;100872.34;6151428;23;20350;-74
2024/03/08 11:53:28;;;;;;;;;;;;;;;12.37;40.46;100860.69;6122925;23;19929;-74
2024/03/08 11:55:53;;;;;;;;;;;;;;;11.93;41.62;100850.31;6151694;23;19971;-73
2024/03/08 11:58:19;;;;;;;;;;;;;;;12.10;40.93;100877.72;6152886;23;19917;-73
2024/03/08 12:00:50;;;;;;;;;;;;;;;12.33;39.78;100860.28;6151005;23;20295;-73
2024/03/08 12:03:24;;;;;;;;;;;;;;;12.32;39.89;100864.03;6151782;23;19913;-73
2024/03/08 12:05:59;;;;;;;;;;;;;;;12.62;39.34;100866.28;6152903;23;20008;-73
2024/03/08 12:08:39;;;;;;;;;;;;;;;12.52;39.53;100855.09;6151643;23;19924;-74
2024/03/08 12:11:10;;;;;;;;;;;;;;;12.47;39.62;100876.47;6151358;23;19959;-73
2024/03/08 12:13:35;;;;;;;;;;;;;;;12.91;39.22;100853.34;6152463;23;19917;-73
2024/03/08 12:16:00;;;;;;;;;;;;;;;13.26;38.35;100844.06;6151912;23;19913;-75
2024/03/08 12:18:28;;;;;;;;;;;;;;;13.27;38.29;100851.13;6124508;23;19913;-74
2024/03/08 12:21:10;;;;;;;;;;;;;;;13.53;38.71;100843.97;6152856;23;19951;-75
2024/03/08 12:23:35;;;;;;;;;;;;;;;13.34;38.70;100831.13;6152069;23;19983;-73
2024/03/08 12:26:13;;;;;;;;;;;;;;;13.84;37.36;100828.78;6152660;23;19955;-74
2024/03/08 12:28:38;;;;;;;;;;;;;;;13.24;37.83;100811.03;6152350;23;19919;-74
2024/03/08 12:31:05;;;;;;;;;;;;;;;12.45;38.59;100801.09;6155788;23;19912;-74
2024/03/08 12:33:30;;;;;;;;;;;;;;;12.72;39.02;100819.94;6164629;23;19960;-72
2024/03/08 12:35:58;;;;;;;;;;;;;;;13.42;37.72;100805.72;6153933;23;19913;-73
2024/03/08 12:38:25;;;;;;;;;;;;;;;12.96;38.75;100809.47;6150425;23;20012;-74
2024/03/08 12:40:51;;;;;;;;;;;;;;;13.13;38.44;100791.72;6152299;23;20333;-74
2024/03/08 12:43:17;;;;;;;;;;;;;;;13.03;38.17;100808.41;6125007;23;19987;-74
2024/03/08 12:45:43;;;;;;;;;;;;;;;13.10;38.18;100788.63;6151233;23;20022;-75
2024/03/08 12:48:14;;;;;;;;;;;;;;;13.05;38.62;100783.88;6152973;23;19940;-74
2024/03/08 12:50:47;;;;;;;;;;;;;;;13.33;38.53;100786.19;6152590;23;19916;-72
2024/03/08 12:53:13;;;;;;;;;;;;;;;12.36;39.10;100753.75;6151070;23;20332;-74
2024/03/08 12:55:38;;;;;;;;;;;;;;;12.58;38.38;100775.94;6152697;23;19936;-73